Search for airport 
image banner adimage banner adimage banner ad
image banner ad

KSMF - Sacramento Intl

Located in Sacramento, United States

ICAO - SMF, IATA - SMF

Data provided by Airmate  

General information

Coordinates: N38°41'44" W121°35'27"
Elevation is 27 feet MSL.
Magnetic variation is 13° East
View others Airports in California

Operational data

Special qualification required
Current time UTC:
Current local time:
Weather
METAR: KSMF 211053Z 14011KT 10SM BKN190 17/10 A2979 RMK AO2 SLP086 T01670100
TAF: KSMF 210520Z 2106/2206 18011KT P6SM SKC
View NOTAMs / SUP AIP / TFR affecting this airport [VIEW]
Communications frequencies: [VIEW]

Runways:

RWY identifierQFULength (ft)Width (ft)SurfaceLDA (ft)
17L181°8605150CONC8605
35R8605150CONC8605
17R181°8598150CONC8598
35L8598150CONC8598

Airport contact information

Address: Sacramento United States

Satellite view of KSMF